createdAt,value
2023-02-15T00:00:50.169Z,1016.40
2023-02-15T00:01:50.167Z,1016.44
2023-02-15T00:02:50.191Z,1016.44
2023-02-15T00:03:50.114Z,1016.41
2023-02-15T00:04:50.088Z,1016.44
2023-02-15T00:05:50.092Z,1016.41
2023-02-15T00:06:50.085Z,1016.46
2023-02-15T00:07:50.032Z,1016.47
2023-02-15T00:08:50.012Z,1016.45
2023-02-15T00:09:49.996Z,1016.43
2023-02-15T00:10:50.000Z,1016.42
2023-02-15T00:11:49.959Z,1016.44
2023-02-15T00:12:49.989Z,1016.43
2023-02-15T00:13:49.917Z,1016.40
2023-02-15T00:14:49.893Z,1016.43
2023-02-15T00:15:49.880Z,1016.40
2023-02-15T00:16:49.861Z,1016.42
2023-02-15T00:17:49.850Z,1016.44
2023-02-15T00:18:49.875Z,1016.44
2023-02-15T00:19:49.799Z,1016.45
2023-02-15T00:20:49.818Z,1016.37
2023-02-15T00:21:49.765Z,1016.41
2023-02-15T00:22:49.738Z,1016.39
2023-02-15T00:23:49.721Z,1016.33
2023-02-15T00:24:49.708Z,1016.37
2023-02-15T00:25:49.676Z,1016.34
2023-02-15T00:26:49.660Z,1016.38
2023-02-15T00:27:49.717Z,1016.36
2023-02-15T00:28:49.652Z,1016.36
2023-02-15T00:29:49.658Z,1016.36
2023-02-15T00:30:49.691Z,1016.34
2023-02-15T00:31:49.608Z,1016.37
2023-02-15T00:32:49.551Z,1016.34
2023-02-15T00:33:49.553Z,1016.34
2023-02-15T00:34:49.496Z,1016.29
2023-02-15T00:35:49.490Z,1016.35
2023-02-15T00:36:49.475Z,1016.37
2023-02-15T00:37:50.450Z,1016.35
2023-02-15T00:38:49.430Z,1016.35
2023-02-15T00:39:49.401Z,1016.30
2023-02-15T00:40:49.382Z,1016.28
2023-02-15T00:41:49.359Z,1016.32
2023-02-15T00:42:49.352Z,1016.30
2023-02-15T00:43:49.348Z,1016.31
2023-02-15T00:44:49.304Z,1016.29
2023-02-15T00:45:49.342Z,1016.35
2023-02-15T00:46:49.268Z,1016.29
2023-02-15T00:47:49.244Z,1016.29
2023-02-15T00:48:49.237Z,1016.26
2023-02-15T00:49:49.211Z,1016.25
2023-02-15T00:50:49.221Z,1016.27
2023-02-15T00:51:49.181Z,1016.26
2023-02-15T00:52:49.142Z,1016.24
2023-02-15T00:53:49.126Z,1016.21
2023-02-15T00:54:49.142Z,1016.20
2023-02-15T00:55:49.088Z,1016.21
2023-02-15T00:56:49.061Z,1016.20
2023-02-15T00:57:49.044Z,1016.14
2023-02-15T00:58:49.025Z,1016.13
2023-02-15T00:59:49.004Z,1016.14
2023-02-15T01:00:49.023Z,1016.12
2023-02-15T01:01:48.961Z,1016.10
2023-02-15T01:02:48.944Z,1016.09
2023-02-15T01:03:48.934Z,1016.11
2023-02-15T01:04:48.904Z,1016.10
2023-02-15T01:05:48.908Z,1016.10
2023-02-15T01:06:48.866Z,1016.08
2023-02-15T01:07:48.846Z,1016.11
2023-02-15T01:08:48.824Z,1016.11
2023-02-15T01:09:48.807Z,1016.09
2023-02-15T01:10:48.791Z,1016.08
2023-02-15T01:11:48.801Z,1016.07
2023-02-15T01:12:48.756Z,1016.01
2023-02-15T01:13:48.740Z,1016.08
2023-02-15T01:14:48.762Z,1016.05
2023-02-15T01:15:48.703Z,1016.03
2023-02-15T01:16:48.669Z,1016.06
2023-02-15T01:17:48.678Z,1016.01
2023-02-15T01:18:48.648Z,1016.01
2023-02-15T01:19:48.614Z,1016.03
2023-02-15T01:20:48.621Z,1016.03
2023-02-15T01:21:48.572Z,1016.07
2023-02-15T01:22:48.545Z,1016.06
2023-02-15T01:23:48.539Z,1016.04
2023-02-15T01:24:48.529Z,1016.05
2023-02-15T01:25:48.486Z,1016.09
2023-02-15T01:26:48.505Z,1016.03
2023-02-15T01:27:48.475Z,1016.01
2023-02-15T01:28:48.424Z,1016.01
2023-02-15T01:29:48.411Z,1016.02
2023-02-15T01:30:48.469Z,1016.01
2023-02-15T01:31:48.491Z,1015.97
2023-02-15T01:32:48.384Z,1015.97
2023-02-15T01:33:48.325Z,1015.99
2023-02-15T01:34:48.312Z,1015.98
2023-02-15T01:35:48.303Z,1016.00
2023-02-15T01:36:48.276Z,1016.01
2023-02-15T01:37:48.249Z,1015.99
2023-02-15T01:38:48.235Z,1015.96
2023-02-15T01:39:48.215Z,1015.96
2023-02-15T01:40:48.184Z,1015.93
2023-02-15T01:41:48.171Z,1015.94
2023-02-15T01:42:48.170Z,1015.93
2023-02-15T01:43:48.130Z,1015.86
2023-02-15T01:44:48.139Z,1015.92
2023-02-15T01:45:48.115Z,1015.92
2023-02-15T01:46:48.081Z,1015.88
2023-02-15T01:47:48.047Z,1015.92
2023-02-15T01:48:48.027Z,1015.90
2023-02-15T01:49:48.030Z,1015.91
2023-02-15T01:50:47.989Z,1015.85
2023-02-15T01:51:47.964Z,1015.84
2023-02-15T01:52:47.966Z,1015.83
2023-02-15T01:53:47.924Z,1015.79
2023-02-15T01:54:47.932Z,1015.88
2023-02-15T01:55:47.899Z,1015.88
2023-02-15T01:56:47.861Z,1015.89
2023-02-15T01:57:47.843Z,1015.86
2023-02-15T01:58:47.818Z,1015.88
2023-02-15T01:59:47.837Z,1015.84
2023-02-15T02:00:47.787Z,1015.82
2023-02-15T02:01:47.804Z,1015.82
2023-02-15T02:02:47.779Z,1015.81
2023-02-15T02:03:47.726Z,1015.78
2023-02-15T02:04:47.721Z,1015.79
2023-02-15T02:05:47.677Z,1015.73
2023-02-15T02:06:47.668Z,1015.72
2023-02-15T02:07:47.662Z,1015.75
2023-02-15T02:08:47.617Z,1015.70
2023-02-15T02:09:47.596Z,1015.65
2023-02-15T02:10:47.601Z,1015.67
2023-02-15T02:11:47.565Z,1015.72
2023-02-15T02:12:47.594Z,1015.75
2023-02-15T02:13:47.512Z,1015.74
2023-02-15T02:14:47.512Z,1015.73
2023-02-15T02:15:47.553Z,1015.67
2023-02-15T02:16:47.467Z,1015.67
2023-02-15T02:17:47.503Z,1015.65
2023-02-15T02:18:47.441Z,1015.66
2023-02-15T02:19:47.396Z,1015.65
2023-02-15T02:20:47.376Z,1015.62
2023-02-15T02:21:47.358Z,1015.66
2023-02-15T02:22:47.395Z,1015.66
2023-02-15T02:23:47.324Z,1015.65
2023-02-15T02:24:47.294Z,1015.65
2023-02-15T02:25:47.274Z,1015.64
2023-02-15T02:26:47.264Z,1015.66
2023-02-15T02:27:47.239Z,1015.70
2023-02-15T02:28:47.253Z,1015.66
2023-02-15T02:29:47.230Z,1015.65
2023-02-15T02:30:47.249Z,1015.65
2023-02-15T02:31:47.229Z,1015.63
2023-02-15T02:32:47.134Z,1015.66
2023-02-15T02:33:47.116Z,1015.67
2023-02-15T02:34:47.120Z,1015.69
2023-02-15T02:35:47.077Z,1015.71
2023-02-15T02:36:47.049Z,1015.63
2023-02-15T02:37:47.026Z,1015.64
2023-02-15T02:38:47.004Z,1015.60
2023-02-15T02:39:46.993Z,1015.62
2023-02-15T02:40:46.990Z,1015.56
2023-02-15T02:41:46.953Z,1015.55
2023-02-15T02:42:46.924Z,1015.54
2023-02-15T02:43:46.912Z,1015.48
2023-02-15T02:44:46.887Z,1015.43
2023-02-15T02:45:46.894Z,1015.42
2023-02-15T02:46:46.915Z,1015.40
2023-02-15T02:47:46.824Z,1015.40
2023-02-15T02:48:46.807Z,1015.43
2023-02-15T02:49:46.785Z,1015.42
2023-02-15T02:50:46.790Z,1015.42
2023-02-15T02:51:46.771Z,1015.41
2023-02-15T02:52:46.743Z,1015.44
2023-02-15T02:53:46.704Z,1015.43
2023-02-15T02:54:46.680Z,1015.45
2023-02-15T02:55:46.675Z,1015.38
2023-02-15T02:56:46.645Z,1015.46
2023-02-15T02:57:46.622Z,1015.45
2023-02-15T02:58:46.603Z,1015.49
2023-02-15T02:59:46.583Z,1015.48
2023-02-15T03:00:46.560Z,1015.46
2023-02-15T03:01:46.620Z,1015.45
2023-02-15T03:02:46.596Z,1015.45
2023-02-15T03:03:46.503Z,1015.43
2023-02-15T03:04:46.477Z,1015.48
2023-02-15T03:05:46.465Z,1015.42
2023-02-15T03:06:46.433Z,1015.40
2023-02-15T03:07:46.473Z,1015.43
2023-02-15T03:08:46.410Z,1015.38
2023-02-15T03:09:46.384Z,1015.42
2023-02-15T03:10:46.352Z,1015.36
2023-02-15T03:11:46.339Z,1015.38
2023-02-15T03:12:46.314Z,1015.33
2023-02-15T03:13:46.332Z,1015.34
2023-02-15T03:14:46.280Z,1015.31
2023-02-15T03:15:46.279Z,1015.30
2023-02-15T03:16:46.235Z,1015.28
2023-02-15T03:17:46.237Z,1015.34
2023-02-15T03:18:46.194Z,1015.24
2023-02-15T03:19:46.197Z,1015.27
2023-02-15T03:20:46.152Z,1015.25
2023-02-15T03:21:46.138Z,1015.23
2023-02-15T03:22:46.114Z,1015.21
2023-02-15T03:23:46.142Z,1015.23
2023-02-15T03:24:46.070Z,1015.25
2023-02-15T03:25:46.065Z,1015.18
2023-02-15T03:26:46.033Z,1015.18
2023-02-15T03:27:46.017Z,1015.21
2023-02-15T03:28:46.027Z,1015.13
2023-02-15T03:29:46.010Z,1015.18
2023-02-15T03:30:45.946Z,1015.17
2023-02-15T03:31:46.077Z,1015.17
2023-02-15T03:32:45.916Z,1015.18
2023-02-15T03:33:45.912Z,1015.23
2023-02-15T03:34:45.897Z,1015.26
2023-02-15T03:35:45.854Z,1015.25
2023-02-15T03:36:45.823Z,1015.26
2023-02-15T03:37:45.806Z,1015.24
2023-02-15T03:38:45.788Z,1015.23
2023-02-15T03:39:45.795Z,1015.18
2023-02-15T03:40:45.745Z,1015.16
2023-02-15T03:41:45.729Z,1015.10
2023-02-15T03:42:45.707Z,1015.16
2023-02-15T03:43:45.688Z,1015.15
2023-02-15T03:44:45.685Z,1015.12
2023-02-15T03:45:45.643Z,1015.11
2023-02-15T03:46:45.707Z,1015.12
2023-02-15T03:47:45.597Z,1015.10
2023-02-15T03:48:45.578Z,1015.06
2023-02-15T03:49:45.559Z,1015.07
2023-02-15T03:50:45.535Z,1015.07
2023-02-15T03:51:45.540Z,1015.03
2023-02-15T03:52:45.521Z,1015.00
2023-02-15T03:53:45.475Z,1015.00
2023-02-15T03:54:45.451Z,1015.04
2023-02-15T03:55:45.432Z,1015.02
2023-02-15T03:56:45.412Z,1015.02
2023-02-15T03:57:45.428Z,1015.04
2023-02-15T03:58:45.371Z,1015.05
2023-02-15T03:59:45.349Z,1015.04
2023-02-15T04:00:45.390Z,1015.00
2023-02-15T04:01:45.320Z,1015.00
2023-02-15T04:02:45.418Z,1015.06
2023-02-15T04:03:45.272Z,1015.04
2023-02-15T04:04:45.248Z,1015.07
2023-02-15T04:05:45.232Z,1015.07
2023-02-15T04:06:45.220Z,1015.04
2023-02-15T04:07:45.183Z,1015.05
2023-02-15T04:08:45.217Z,1015.05
2023-02-15T04:09:45.152Z,1015.04
2023-02-15T04:10:45.124Z,1015.06
2023-02-15T04:11:45.098Z,1015.03
2023-02-15T04:12:45.079Z,1015.01
2023-02-15T04:13:45.054Z,1014.98
2023-02-15T04:14:45.045Z,1015.02
2023-02-15T04:15:45.016Z,1015.00
2023-02-15T04:16:45.007Z,1014.99
2023-02-15T04:17:44.987Z,1014.96
2023-02-15T04:18:45.004Z,1014.95
2023-02-15T04:19:44.931Z,1014.95
2023-02-15T04:20:44.911Z,1014.92
2023-02-15T04:21:44.889Z,1014.95
2023-02-15T04:22:44.865Z,1014.97
2023-02-15T04:23:44.845Z,1014.98
2023-02-15T04:24:44.826Z,1014.98
2023-02-15T04:25:44.812Z,1015.00
2023-02-15T04:26:44.796Z,1015.00
2023-02-15T04:27:44.767Z,1014.97
2023-02-15T04:28:44.743Z,1014.98
2023-02-15T04:29:44.730Z,1014.97
2023-02-15T04:30:44.726Z,1014.95
2023-02-15T04:31:44.732Z,1014.95
2023-02-15T04:32:44.715Z,1014.95
2023-02-15T04:33:44.647Z,1014.94
2023-02-15T04:34:44.618Z,1014.97
2023-02-15T04:35:44.593Z,1014.97
2023-02-15T04:36:44.579Z,1014.96
2023-02-15T04:37:44.550Z,1014.95
2023-02-15T04:38:44.572Z,1014.97
2023-02-15T04:39:44.511Z,1014.92
2023-02-15T04:40:44.494Z,1014.88
2023-02-15T04:41:44.493Z,1014.84
2023-02-15T04:42:44.459Z,1014.87
2023-02-15T04:43:44.479Z,1014.88
2023-02-15T04:44:44.419Z,1014.87
2023-02-15T04:45:44.418Z,1014.89
2023-02-15T04:46:44.365Z,1014.85
2023-02-15T04:47:44.336Z,1014.84
2023-02-15T04:48:44.356Z,1014.86
2023-02-15T04:49:44.300Z,1014.85
2023-02-15T04:50:44.283Z,1014.84
2023-02-15T04:51:44.260Z,1014.84
2023-02-15T04:52:44.242Z,1014.83
2023-02-15T04:53:44.217Z,1014.80
2023-02-15T04:54:44.224Z,1014.79
2023-02-15T04:55:44.177Z,1014.78
2023-02-15T04:56:44.160Z,1014.84
2023-02-15T04:57:44.136Z,1014.78
2023-02-15T04:58:44.141Z,1014.77
2023-02-15T04:59:44.090Z,1014.79
2023-02-15T05:00:44.112Z,1014.80
2023-02-15T05:01:44.077Z,1014.83
2023-02-15T05:02:44.070Z,1014.82
2023-02-15T05:03:44.009Z,1014.83
2023-02-15T05:04:43.987Z,1014.87
2023-02-15T05:05:43.971Z,1014.86
2023-02-15T05:06:43.968Z,1014.87
2023-02-15T05:07:43.926Z,1014.81
2023-02-15T05:08:43.903Z,1014.82
2023-02-15T05:09:43.879Z,1014.78
2023-02-15T05:10:43.863Z,1014.76
2023-02-15T05:11:43.838Z,1014.77
2023-02-15T05:12:43.824Z,1014.78
2023-02-15T05:13:43.840Z,1014.76
2023-02-15T05:14:43.777Z,1014.76
2023-02-15T05:15:44.963Z,1014.75
2023-02-15T05:16:43.794Z,1014.68
2023-02-15T05:17:43.721Z,1014.67
2023-02-15T05:18:43.736Z,1014.62
2023-02-15T05:19:43.673Z,1014.65
2023-02-15T05:20:43.653Z,1014.62
2023-02-15T05:21:43.628Z,1014.65
2023-02-15T05:22:43.621Z,1014.71
2023-02-15T05:23:43.596Z,1014.68
2023-02-15T05:24:43.611Z,1014.70
2023-02-15T05:25:43.545Z,1014.63
2023-02-15T05:26:43.526Z,1014.64
2023-02-15T05:27:43.502Z,1014.65
2023-02-15T05:28:43.512Z,1014.60
2023-02-15T05:29:43.459Z,1014.61
2023-02-15T05:30:43.629Z,1014.64
2023-02-15T05:31:43.615Z,1014.62
2023-02-15T05:32:43.539Z,1014.69
2023-02-15T05:33:43.411Z,1014.67
2023-02-15T05:34:43.363Z,1014.64
2023-02-15T05:35:43.367Z,1014.69
2023-02-15T05:36:43.361Z,1014.61
2023-02-15T05:37:43.295Z,1014.65
2023-02-15T05:38:43.283Z,1014.64
2023-02-15T05:39:43.265Z,1014.69
2023-02-15T05:40:43.240Z,1014.61
2023-02-15T05:41:43.221Z,1014.63
2023-02-15T05:42:43.219Z,1014.67
2023-02-15T05:43:43.172Z,1014.63
2023-02-15T05:44:43.182Z,1014.65
2023-02-15T05:45:43.140Z,1014.62
2023-02-15T05:46:43.150Z,1014.70
2023-02-15T05:47:43.087Z,1014.70
2023-02-15T05:48:43.068Z,1014.68
2023-02-15T05:49:43.050Z,1014.67
2023-02-15T05:50:43.029Z,1014.68
2023-02-15T05:51:43.002Z,1014.64
2023-02-15T05:52:43.021Z,1014.63
2023-02-15T05:53:42.961Z,1014.64
2023-02-15T05:54:42.944Z,1014.62
2023-02-15T05:55:42.915Z,1014.59
2023-02-15T05:56:42.901Z,1014.60
2023-02-15T05:57:42.905Z,1014.59
2023-02-15T05:58:42.859Z,1014.59
2023-02-15T05:59:43.139Z,1014.57
2023-02-15T06:00:42.831Z,1014.61
2023-02-15T06:01:42.791Z,1014.62
2023-02-15T06:02:42.828Z,1014.63
2023-02-15T06:03:42.810Z,1014.67
2023-02-15T06:04:42.728Z,1014.62
2023-02-15T06:05:42.705Z,1014.66
2023-02-15T06:06:42.705Z,1014.61
2023-02-15T06:07:42.694Z,1014.63
2023-02-15T06:08:42.644Z,1014.63
2023-02-15T06:09:42.628Z,1014.65
2023-02-15T06:10:42.632Z,1014.63
2023-02-15T06:11:42.578Z,1014.58
2023-02-15T06:12:42.671Z,1014.61
2023-02-15T06:13:42.534Z,1014.59
2023-02-15T06:14:42.544Z,1014.59
2023-02-15T06:15:42.532Z,1014.54
2023-02-15T06:16:42.476Z,1014.61
2023-02-15T06:17:42.483Z,1014.59
2023-02-15T06:18:42.429Z,1014.62
2023-02-15T06:19:42.407Z,1014.63
2023-02-15T06:20:42.390Z,1014.60
2023-02-15T06:21:42.366Z,1014.62
2023-02-15T06:22:42.421Z,1014.60
2023-02-15T06:23:42.327Z,1014.59
2023-02-15T06:24:42.305Z,1014.58
2023-02-15T06:25:42.287Z,1014.55
2023-02-15T06:26:42.258Z,1014.58
2023-02-15T06:27:42.242Z,1014.56
2023-02-15T06:28:42.235Z,1014.60
2023-02-15T06:29:42.196Z,1014.56
2023-02-15T06:30:42.228Z,1014.58
2023-02-15T06:31:42.273Z,1014.58
2023-02-15T06:32:42.139Z,1014.59
2023-02-15T06:33:42.114Z,1014.63
2023-02-15T06:34:42.087Z,1014.60
2023-02-15T06:35:42.071Z,1014.62
2023-02-15T06:36:42.056Z,1014.60
2023-02-15T06:37:42.066Z,1014.62
2023-02-15T06:38:42.003Z,1014.58
2023-02-15T06:39:41.981Z,1014.56
2023-02-15T06:40:41.979Z,1014.57
2023-02-15T06:41:41.937Z,1014.53
2023-02-15T06:42:41.916Z,1014.52
2023-02-15T06:43:41.895Z,1014.53
2023-02-15T06:44:41.914Z,1014.49
2023-02-15T06:45:41.850Z,1014.52
2023-02-15T06:46:41.835Z,1014.51
2023-02-15T06:47:41.842Z,1014.51
2023-02-15T06:48:41.830Z,1014.53
2023-02-15T06:49:41.775Z,1014.54
2023-02-15T06:50:41.745Z,1014.54
2023-02-15T06:51:41.727Z,1014.56
2023-02-15T06:52:41.704Z,1014.59
2023-02-15T06:53:41.685Z,1014.63
2023-02-15T06:54:41.719Z,1014.58
2023-02-15T06:55:41.643Z,1014.58
2023-02-15T06:56:41.621Z,1014.53
2023-02-15T06:57:41.594Z,1014.57
2023-02-15T06:58:41.581Z,1014.57
2023-02-15T06:59:41.552Z,1014.54
2023-02-15T07:00:41.535Z,1014.55
2023-02-15T07:01:41.551Z,1014.53
2023-02-15T07:02:41.491Z,1014.52
2023-02-15T07:03:41.509Z,1014.53
2023-02-15T07:04:41.477Z,1014.52
2023-02-15T07:05:41.430Z,1014.53
2023-02-15T07:06:41.412Z,1014.51
2023-02-15T07:07:41.386Z,1014.53
2023-02-15T07:08:41.402Z,1014.55
2023-02-15T07:09:41.337Z,1014.54
2023-02-15T07:10:41.350Z,1014.55
2023-02-15T07:11:41.296Z,1014.57
2023-02-15T07:12:41.307Z,1014.53
2023-02-15T07:13:41.298Z,1014.57
2023-02-15T07:14:41.233Z,1014.55
2023-02-15T07:15:41.233Z,1014.60
2023-02-15T07:16:41.188Z,1014.58
2023-02-15T07:17:41.184Z,1014.62
2023-02-15T07:18:41.169Z,1014.54
2023-02-15T07:19:41.152Z,1014.61
2023-02-15T07:20:41.109Z,1014.62
2023-02-15T07:21:41.079Z,1014.58
2023-02-15T07:22:41.067Z,1014.60
2023-02-15T07:23:41.045Z,1014.60
2023-02-15T07:24:41.044Z,1014.62
2023-02-15T07:25:41.029Z,1014.65
2023-02-15T07:26:40.980Z,1014.61
2023-02-15T07:27:40.984Z,1014.55
2023-02-15T07:28:40.929Z,1014.61
2023-02-15T07:29:40.920Z,1014.53
2023-02-15T07:30:40.918Z,1014.58
2023-02-15T07:31:40.910Z,1014.58
2023-02-15T07:32:40.950Z,1014.57
2023-02-15T07:33:40.829Z,1014.54
2023-02-15T07:34:40.802Z,1014.52
2023-02-15T07:35:40.783Z,1014.45
2023-02-15T07:36:40.790Z,1014.54
2023-02-15T07:37:40.765Z,1014.50
2023-02-15T07:38:40.748Z,1014.45
2023-02-15T07:39:40.706Z,1014.44
2023-02-15T07:40:40.684Z,1014.52
2023-02-15T07:41:40.683Z,1014.49
2023-02-15T07:42:40.636Z,1014.47
2023-02-15T07:43:40.622Z,1014.46
2023-02-15T07:44:40.595Z,1014.44
2023-02-15T07:45:40.595Z,1014.44
2023-02-15T07:46:40.590Z,1014.40
2023-02-15T07:47:40.632Z,1014.43
2023-02-15T07:48:40.509Z,1014.38
2023-02-15T07:49:40.486Z,1014.35
2023-02-15T07:50:40.526Z,1014.32
2023-02-15T07:51:40.451Z,1014.29
2023-02-15T07:52:40.424Z,1014.31
2023-02-15T07:53:40.409Z,1014.33
2023-02-15T07:54:40.396Z,1014.25
2023-02-15T07:55:40.378Z,1014.23
2023-02-15T07:56:40.410Z,1014.27
2023-02-15T07:57:40.316Z,1014.23
2023-02-15T07:58:40.303Z,1014.23
2023-02-15T07:59:40.276Z,1014.25
2023-02-15T08:00:40.264Z,1014.25
2023-02-15T08:01:40.269Z,1014.21
2023-02-15T08:02:40.330Z,1014.19
2023-02-15T08:03:40.330Z,1014.20
2023-02-15T08:04:40.178Z,1014.16
2023-02-15T08:05:40.191Z,1014.16
2023-02-15T08:06:40.134Z,1014.15
2023-02-15T08:07:40.184Z,1014.14
2023-02-15T08:08:40.108Z,1014.11
2023-02-15T08:09:40.072Z,1014.11
2023-02-15T08:10:40.048Z,1014.12
2023-02-15T08:11:40.039Z,1014.09
2023-02-15T08:12:40.022Z,1014.10
2023-02-15T08:13:39.992Z,1014.07
2023-02-15T08:14:39.968Z,1014.09
2023-02-15T08:15:39.946Z,1014.10
2023-02-15T08:16:40.090Z,1014.08
2023-02-15T08:17:39.903Z,1014.11
2023-02-15T08:18:39.882Z,1014.08
2023-02-15T08:19:39.864Z,1014.05
2023-02-15T08:20:39.840Z,1014.06
2023-02-15T08:21:39.825Z,1014.07
2023-02-15T08:22:39.803Z,1014.03
2023-02-15T08:23:39.781Z,1014.02
2023-02-15T08:24:39.796Z,1014.01
2023-02-15T08:25:39.747Z,1014.01
2023-02-15T08:26:41.848Z,1013.99
2023-02-15T08:27:39.698Z,1013.99
2023-02-15T08:28:40.126Z,1013.95
2023-02-15T08:29:39.684Z,1013.95
2023-02-15T08:30:39.639Z,1013.94
2023-02-15T08:31:39.677Z,1013.94
2023-02-15T08:32:39.642Z,1013.94
2023-02-15T08:33:39.573Z,1013.92
2023-02-15T08:34:39.608Z,1013.98
2023-02-15T08:35:39.554Z,1013.93
2023-02-15T08:36:39.516Z,1013.93
2023-02-15T08:37:39.497Z,1013.95
2023-02-15T08:38:39.477Z,1013.92
2023-02-15T08:39:39.498Z,1013.94
2023-02-15T08:40:39.455Z,1013.88
2023-02-15T08:41:39.412Z,1013.89
2023-02-15T08:42:39.390Z,1013.88
2023-02-15T08:43:39.382Z,1013.85
2023-02-15T08:44:39.357Z,1013.86
2023-02-15T08:45:39.519Z,1013.87
2023-02-15T08:46:39.308Z,1013.90
2023-02-15T08:47:39.294Z,1013.88
2023-02-15T08:48:39.270Z,1013.90
2023-02-15T08:49:39.252Z,1013.82
2023-02-15T08:50:39.274Z,1013.85
2023-02-15T08:51:39.207Z,1013.80
2023-02-15T08:52:39.199Z,1013.83
2023-02-15T08:53:39.170Z,1013.79
2023-02-15T08:54:39.141Z,1013.82
2023-02-15T08:55:39.121Z,1013.80
2023-02-15T08:56:39.103Z,1013.77
2023-02-15T08:57:39.100Z,1013.78
2023-02-15T08:58:39.292Z,1013.79
2023-02-15T08:59:39.046Z,1013.82
2023-02-15T09:00:39.094Z,1013.76
2023-02-15T09:01:39.015Z,1013.74
2023-02-15T09:02:39.107Z,1013.75
2023-02-15T09:03:38.963Z,1013.72
2023-02-15T09:04:39.013Z,1013.72
2023-02-15T09:05:38.917Z,1013.69
2023-02-15T09:06:38.895Z,1013.70
2023-02-15T09:07:38.883Z,1013.67
2023-02-15T09:08:39.015Z,1013.65
2023-02-15T09:09:38.933Z,1013.71
2023-02-15T09:10:38.819Z,1013.69
2023-02-15T09:11:38.837Z,1013.69
2023-02-15T09:12:38.821Z,1013.69
2023-02-15T09:13:38.772Z,1013.66
2023-02-15T09:14:38.774Z,1013.68
2023-02-15T09:15:38.749Z,1013.69
2023-02-15T09:16:38.754Z,1013.71
2023-02-15T09:17:38.769Z,1013.70
2023-02-15T09:18:38.734Z,1013.72
2023-02-15T09:19:38.701Z,1013.72
2023-02-15T09:20:38.612Z,1013.73
2023-02-15T09:21:38.594Z,1013.72
2023-02-15T09:22:38.658Z,1013.71
2023-02-15T09:23:38.616Z,1013.69
2023-02-15T09:24:38.530Z,1013.66
2023-02-15T09:25:38.537Z,1013.63
2023-02-15T09:26:38.591Z,1013.63
2023-02-15T09:27:38.484Z,1013.65
2023-02-15T09:28:38.466Z,1013.62
2023-02-15T09:29:38.598Z,1013.62
2023-02-15T09:30:38.798Z,1013.57
2023-02-15T09:31:38.521Z,1013.60
2023-02-15T09:32:38.520Z,1013.59
2023-02-15T09:33:38.686Z,1013.57
2023-02-15T09:34:38.330Z,1013.55
2023-02-15T09:35:38.310Z,1013.53
2023-02-15T09:36:38.314Z,1013.55
2023-02-15T09:37:38.547Z,1013.52
2023-02-15T09:38:38.534Z,1013.56
2023-02-15T09:39:38.268Z,1013.54
2023-02-15T09:40:38.215Z,1013.55
2023-02-15T09:41:38.195Z,1013.54
2023-02-15T09:42:38.209Z,1013.57
2023-02-15T09:43:38.150Z,1013.50
2023-02-15T09:44:38.136Z,1013.52
2023-02-15T09:45:38.145Z,1013.50
2023-02-15T09:46:38.092Z,1013.51
2023-02-15T09:47:38.131Z,1013.51
2023-02-15T09:48:38.078Z,1013.43
2023-02-15T09:49:38.029Z,1013.49
2023-02-15T09:50:38.036Z,1013.43
2023-02-15T09:51:37.989Z,1013.45
2023-02-15T09:52:38.005Z,1013.43
2023-02-15T09:53:37.969Z,1013.43
2023-02-15T09:54:37.940Z,1013.45
2023-02-15T09:55:37.913Z,1013.47
2023-02-15T09:56:37.933Z,1013.49
2023-02-15T09:57:37.873Z,1013.49
2023-02-15T09:58:37.872Z,1013.46
2023-02-15T09:59:37.834Z,1013.46
2023-02-15T10:00:37.814Z,1013.48
2023-02-15T10:01:37.822Z,1013.47
2023-02-15T10:02:37.778Z,1013.49
2023-02-15T10:03:37.765Z,1013.46
2023-02-15T10:04:37.792Z,1013.44
2023-02-15T10:05:37.715Z,1013.48
2023-02-15T10:06:37.722Z,1013.50
2023-02-15T10:07:37.676Z,1013.47
2023-02-15T10:08:37.656Z,1013.47
2023-02-15T10:09:37.639Z,1013.49
2023-02-15T10:10:37.617Z,1013.48
2023-02-15T10:11:37.656Z,1013.50
2023-02-15T10:12:37.604Z,1013.48
2023-02-15T10:13:37.559Z,1013.46
2023-02-15T10:14:37.562Z,1013.45
2023-02-15T10:15:37.522Z,1013.45
2023-02-15T10:16:37.518Z,1013.45
2023-02-15T10:17:37.513Z,1013.45
2023-02-15T10:18:37.476Z,1013.44
2023-02-15T10:19:37.451Z,1013.43
2023-02-15T10:20:37.421Z,1013.46
2023-02-15T10:21:37.416Z,1013.43
2023-02-15T10:22:37.378Z,1013.42
2023-02-15T10:23:37.391Z,1013.43
2023-02-15T10:24:40.575Z,1013.42
2023-02-15T10:25:37.321Z,1013.41
2023-02-15T10:26:37.298Z,1013.40
2023-02-15T10:27:37.284Z,1013.36
2023-02-15T10:28:37.268Z,1013.37
2023-02-15T10:29:37.250Z,1013.37
2023-02-15T10:30:37.330Z,1013.38
2023-02-15T10:31:37.432Z,1013.40
2023-02-15T10:32:37.190Z,1013.46
2023-02-15T10:33:37.175Z,1013.47
2023-02-15T10:34:37.148Z,1013.44
2023-02-15T10:35:37.126Z,1013.47
2023-02-15T10:36:37.129Z,1013.41
2023-02-15T10:37:37.087Z,1013.41
2023-02-15T10:38:37.065Z,1013.38
2023-02-15T10:39:37.133Z,1013.34
2023-02-15T10:40:37.025Z,1013.31
2023-02-15T10:41:37.008Z,1013.33
2023-02-15T10:42:37.006Z,1013.32
2023-02-15T10:43:36.977Z,1013.33
2023-02-15T10:44:36.948Z,1013.33
2023-02-15T10:45:36.976Z,1013.32
2023-02-15T10:46:36.972Z,1013.27
2023-02-15T10:47:36.892Z,1013.25
2023-02-15T10:48:36.867Z,1013.23
2023-02-15T10:49:36.852Z,1013.22
2023-02-15T10:50:36.829Z,1013.20
2023-02-15T10:51:36.815Z,1013.21
2023-02-15T10:52:36.792Z,1013.16
2023-02-15T10:53:36.786Z,1013.16
2023-02-15T10:54:36.758Z,1013.14
2023-02-15T10:55:36.760Z,1013.13
2023-02-15T10:56:36.754Z,1013.14
2023-02-15T10:57:36.700Z,1013.11
2023-02-15T10:58:36.690Z,1013.09
2023-02-15T10:59:36.685Z,1013.12
2023-02-15T11:00:36.640Z,1013.14
2023-02-15T11:01:36.701Z,1013.15
2023-02-15T11:02:36.601Z,1013.15
2023-02-15T11:03:36.617Z,1013.15
2023-02-15T11:04:36.591Z,1013.14
2023-02-15T11:05:36.543Z,1013.12
2023-02-15T11:06:36.522Z,1013.11
2023-02-15T11:07:36.513Z,1013.12
2023-02-15T11:08:36.482Z,1013.12
2023-02-15T11:09:36.499Z,1013.14
2023-02-15T11:10:36.461Z,1013.15
2023-02-15T11:11:36.434Z,1013.16
2023-02-15T11:12:36.422Z,1013.11
2023-02-15T11:13:36.626Z,1013.14
2023-02-15T11:14:36.658Z,1013.08
2023-02-15T11:15:36.607Z,1013.06
2023-02-15T11:16:36.412Z,1013.05
2023-02-15T11:17:36.582Z,1013.04
2023-02-15T11:18:36.525Z,1013.03
2023-02-15T11:19:36.360Z,1013.06
2023-02-15T11:20:36.317Z,1013.04
2023-02-15T11:21:36.246Z,1013.02
2023-02-15T11:22:36.220Z,1013.01
2023-02-15T11:23:36.211Z,1013.04
2023-02-15T11:24:36.193Z,1012.97
2023-02-15T11:25:36.164Z,1012.94
2023-02-15T11:26:36.177Z,1012.92
2023-02-15T11:27:36.199Z,1012.87
2023-02-15T11:28:36.113Z,1012.92
2023-02-15T11:29:36.088Z,1012.87
2023-02-15T11:30:36.124Z,1012.85
2023-02-15T11:31:36.192Z,1012.91
2023-02-15T11:32:36.331Z,1012.92
2023-02-15T11:33:36.016Z,1012.92
2023-02-15T11:34:36.064Z,1012.93
2023-02-15T11:35:35.982Z,1012.92
2023-02-15T11:36:35.963Z,1012.89
2023-02-15T11:37:35.946Z,1012.89
2023-02-15T11:38:35.922Z,1012.89
2023-02-15T11:39:38.178Z,1012.89
2023-02-15T11:40:35.941Z,1012.91
2023-02-15T11:41:35.871Z,1012.94
2023-02-15T11:42:35.850Z,1012.95
2023-02-15T11:43:35.833Z,1012.93
2023-02-15T11:44:35.820Z,1012.92
2023-02-15T11:45:35.810Z,1012.92
2023-02-15T11:46:35.973Z,1012.85
2023-02-15T11:47:35.767Z,1012.86
2023-02-15T11:48:35.742Z,1012.85
2023-02-15T11:49:35.749Z,1012.78
2023-02-15T11:50:35.722Z,1012.73
2023-02-15T11:51:35.692Z,1012.76
2023-02-15T11:52:35.670Z,1012.75
2023-02-15T11:53:35.651Z,1012.74
2023-02-15T11:54:35.673Z,1012.72
2023-02-15T11:55:35.618Z,1012.65
2023-02-15T11:56:35.600Z,1012.66
2023-02-15T11:57:35.588Z,1012.64
2023-02-15T11:58:35.561Z,1012.63
2023-02-15T11:59:35.558Z,1012.63
2023-02-15T12:00:35.561Z,1012.60
2023-02-15T12:01:35.519Z,1012.64
2023-02-15T12:02:35.513Z,1012.59
2023-02-15T12:03:35.522Z,1012.52
2023-02-15T12:04:35.502Z,1012.45
2023-02-15T12:05:35.481Z,1012.45